Terminal Aerodrome Forecast
Issued by NWS

Current Version | Previous Version | Text Only | Print | Product List | Glossary Off
Versions: 1 2 3 4 5 6 7 8 9 10 11 12 13 14 15 16 17 18 19 20 21 22 23 24 25 26 27 28 29 30 31 32 33 34

000
FTUS41 KILN 191500 AAA
TAFLCK
TAF AMD
KLCK 191510Z 1915/2012 VRB03KT P6SM VCSH SCT018 OVC023
      TEMPO 1915/1917 4SM -SHRA BR BKN006
     FM191800 16006KT P6SM VCSH OVC022
      TEMPO 1919/1923 -SHRA OVC015
     FM200100 11003KT P6SM VCSH OVC025=

USA.gov is the U.S. government's official web portal to all federal, state and local government web resources and services.